Snow/Ice From: 16-12-2017 16:00 Until: 17-12-2017 16:00 warning for: Snow/Ice Level: Yellow info button

Although rather usual in this region, locally or potentially dangerous phenomena are expected. (such as local winds, summer thunderstorms, rising streams or high waves) Be aware and pay attention to the latest weather updates, especially if you carry out activities exposed to weather or close to a stream or shoreline. 


Meteo18 Weather Cam more information Meteo18 Weather Cam


Thunder radar more information blitzortung!


warning for Snow/Ice more information rain snow radar


Visit our other weather sites:

Template documentation
and downloads

And another site



Weather Underground History page Text

Daily Summary for July 29, 2017 Units:  English    Metric   Both
« Previous Day
Next Day »
Daily Weekly Monthly Yearly Custom
  High: Low: Average:
Temperature: 86.4 °F 56.5 °F 70.3 °F
Dew Point: 63 °F 54.1 °F 57.7 °F
Humidity: 93 % 40 % 68 %
Wind Speed: 14 mph 0 mph 3.2 mph
Wind Gust: 20 mph - -
Wind:- - SW
Pressure: 30.1 in 29.9 in -
Precipitation: 0 in    
Historical Graphs
 
 
Tabular Data for July 29, 2017
Time Temperature Dew Point Pressure Wind Wind Speed Wind Gust Humidity Rainfall Rate (Hourly)
00:02 62.1 °F 56.1 °F 30.1 in SSW 1 mph 2 mph 81 % 0 in
00:12 62.2 °F 55.9 °F 30.1 in SSW 2 mph 2 mph 80 % 0 in
00:17 62.4 °F 56.1 °F 30.1 in SW 3 mph 3 mph 80 % 0 in
00:22 63 °F 56.3 °F 30.1 in SW 3 mph 3 mph 79 % 0 in
00:32 63.7 °F 56.3 °F 30.1 in SW 3 mph 4 mph 77 % 0 in
00:42 63.7 °F 56.3 °F 30.1 in SSW 1 mph 5 mph 77 % 0 in
00:47 63.7 °F 56.3 °F 30.1 in SW 2 mph 5 mph 77 % 0 in
00:52 63.7 °F 56.3 °F 30.1 in Calm   5 mph 77 % 0 in
01:02 63 °F 55.9 °F 30.1 in West 2 mph 4 mph 78 % 0 in
01:12 63.1 °F 56.1 °F 30.1 in WSW 1 mph 4 mph 78 % 0 in
01:17 63.1 °F 56.1 °F 30.1 in WSW 1 mph 5 mph 78 % 0 in
01:22 63.1 °F 56.1 °F 30.1 in SW 2 mph 5 mph 78 % 0 in
01:32 63.1 °F 56.5 °F 30.1 in SW 3 mph 5 mph 79 % 0 in
01:42 63 °F 56.3 °F 30.1 in Calm   5 mph 79 % 0 in
01:47 62.6 °F 55.9 °F 30.1 in Calm   5 mph 79 % 0 in
01:52 62.1 °F 55.8 °F 30.1 in Calm   4 mph 80 % 0 in
01:57 61.3 °F 55.4 °F 30.1 in Calm   3 mph 81 % 0 in
02:02 60.6 °F 55 °F 30.1 in Calm   2 mph 82 % 0 in
02:12 59.7 °F 54.9 °F 30.1 in Calm   1 mph 84 % 0 in
02:17 59.5 °F 55 °F 30.1 in Calm   1 mph 85 % 0 in
02:22 59.4 °F 54.9 °F 30.1 in Calm   1 mph 85 % 0 in
02:32 59 °F 54.9 °F 30.1 in Calm     86 % 0 in
02:42 58.8 °F 55 °F 30.1 in Calm   1 mph 87 % 0 in
02:47 58.8 °F 55 °F 30.1 in Calm   1 mph 87 % 0 in
02:52 58.6 °F 54.9 °F 30.1 in Calm   1 mph 87 % 0 in
02:57 58.3 °F 54.5 °F 30.1 in Calm   1 mph 87 % 0 in
03:02 57.9 °F 54.3 °F 30.1 in Calm   1 mph 88 % 0 in
03:12 57.9 °F 54.7 °F 30.1 in Calm     89 % 0 in
03:17 58.3 °F 55 °F 30.1 in Calm     89 % 0 in
03:22 58.5 °F 55.2 °F 30.1 in Calm     89 % 0 in
03:32 58.3 °F 54.7 °F 30.1 in Calm     88 % 0 in
03:37 58.1 °F 54.5 °F 30.1 in Calm     88 % 0 in
03:42 57.9 °F 54.7 °F 30.1 in Calm     89 % 0 in
03:47 57.7 °F 54.5 °F 30.1 in Calm     89 % 0 in
03:52 57.7 °F 54.5 °F 30.1 in Calm     89 % 0 in
03:57 57.6 °F 54.3 °F 30.1 in Calm     89 % 0 in
04:02 57.6 °F 54.7 °F 30.1 in Calm     90 % 0 in
04:12 57.4 °F 54.5 °F 30.1 in SSE 1 mph   90 % 0 in
04:17 57.4 °F 54.5 °F 30.1 in Calm     90 % 0 in
04:22 57.4 °F 54.5 °F 30.1 in Calm   1 mph 90 % 0 in
04:27 57.4 °F 54.5 °F 30.1 in SSE 1 mph 2 mph 90 % 0 in
04:32 57.4 °F 54.5 °F 30.1 in SE 1 mph 2 mph 90 % 0 in
04:37 57.4 °F 54.5 °F 30.1 in SE 1 mph 2 mph 90 % 0 in
04:42 57.2 °F 54.7 °F 30.1 in Calm   2 mph 91 % 0 in
04:47 57.2 °F 54.7 °F 30.1 in Calm   2 mph 91 % 0 in
04:52 57.4 °F 54.9 °F 30.1 in Calm   2 mph 91 % 0 in
04:57 57.4 °F 54.9 °F 30.1 in SE 1 mph 2 mph 91 % 0 in
05:02 57.4 °F 54.9 °F 30.1 in SSE 1 mph 2 mph 91 % 0 in
05:12 57.2 °F 54.7 °F 30.1 in Calm   2 mph 91 % 0 in
05:17 57.2 °F 54.7 °F 30.1 in Calm   2 mph 91 % 0 in
05:22 57 °F 54.5 °F 30.1 in Calm   1 mph 91 % 0 in
05:32 57 °F 54.5 °F 30.1 in Calm   1 mph 91 % 0 in
05:42 57 °F 54.5 °F 30.1 in Calm   2 mph 91 % 0 in
05:47 56.8 °F 54.3 °F 30.1 in Calm   2 mph 91 % 0 in
05:52 56.7 °F 54.3 °F 30.1 in Calm   2 mph 92 % 0 in
05:57 56.7 °F 54.3 °F 30.1 in Calm   2 mph 92 % 0 in
06:02 56.7 °F 54.3 °F 30.1 in Calm   2 mph 92 % 0 in
06:12 56.7 °F 54.3 °F 30.1 in Calm   1 mph 92 % 0 in
06:17 56.5 °F 54.1 °F 30.1 in Calm   1 mph 92 % 0 in
06:22 56.5 °F 54.1 °F 30.1 in Calm     92 % 0 in
06:32 56.5 °F 54.5 °F 30.1 in SSE 1 mph   93 % 0 in
06:37 56.7 °F 54.7 °F 30.1 in Calm     93 % 0 in
06:42 56.7 °F 54.7 °F 30.1 in Calm   3 mph 93 % 0 in
06:52 56.8 °F 54.9 °F 30.1 in SE 1 mph 2 mph 93 % 0 in
07:02 57.4 °F 55.4 °F 30.1 in SSE 1 mph 2 mph 93 % 0 in
07:07 57.4 °F 55.4 °F 30.1 in Calm   2 mph 93 % 0 in
07:12 57.6 °F 55.6 °F 30.1 in SSE 1 mph 3 mph 93 % 0 in
07:17 57.7 °F 55.8 °F 30.1 in SSW 1 mph 3 mph 93 % 0 in
07:22 57.7 °F 55.4 °F 30.1 in SSW 1 mph 2 mph 92 % 0 in
07:32 57.9 °F 55.6 °F 30.1 in SSW 2 mph 3 mph 92 % 0 in
07:42 57.9 °F 55.6 °F 30.1 in SSW 2 mph 3 mph 92 % 0 in
07:47 58.3 °F 55.9 °F 30.1 in South 2 mph 3 mph 92 % 0 in
07:52 58.3 °F 55.9 °F 30.1 in SE 1 mph 3 mph 92 % 0 in
08:02 58.6 °F 56.3 °F 30.1 in SSW 1 mph 3 mph 92 % 0 in
08:12 58.8 °F 56.5 °F 30.1 in Calm   3 mph 92 % 0 in
08:17 59 °F 56.3 °F 30.1 in SSW 1 mph 3 mph 91 % 0 in
08:27 59.4 °F 57 °F 30.1 in Calm   2 mph 92 % 0 in
08:32 59.5 °F 57.2 °F 30.1 in Calm   2 mph 92 % 0 in
08:37 59.7 °F 57 °F 30.1 in Calm   2 mph 91 % 0 in
08:42 60.1 °F 57.7 °F 30.1 in Calm   2 mph 92 % 0 in
08:52 60.6 °F 57.9 °F 30.1 in SSW 2 mph 6 mph 91 % 0 in
09:02 61.5 °F 58.3 °F 30.1 in SSW 4 mph 6 mph 89 % 0 in
09:12 62.2 °F 58.6 °F 30.1 in SW 2 mph 7 mph 88 % 0 in
09:17 62.8 °F 58.8 °F 30.1 in SSW 3 mph 7 mph 87 % 0 in
09:22 63.1 °F 58.8 °F 30.1 in South 5 mph 6 mph 86 % 0 in
09:32 63.5 °F 58.8 °F 30.1 in SW 4 mph 7 mph 85 % 0 in
09:42 64.8 °F 59.9 °F 30.1 in SSW 3 mph 6 mph 84 % 0 in
09:52 64.9 °F 59.7 °F 30.1 in SSW 2 mph 8 mph 83 % 0 in
09:57 64.9 °F 59.7 °F 30.1 in SW 7 mph 8 mph 83 % 0 in
10:02 64.9 °F 59.9 °F 30.1 in SSW 4 mph 8 mph 84 % 0 in
10:12 65.1 °F 59.9 °F 30.1 in SW 4 mph 8 mph 83 % 0 in
10:17 65.1 °F 59.5 °F 30.1 in SW 4 mph 8 mph 82 % 0 in
10:22 65.1 °F 59.5 °F 30.1 in SW 3 mph 9 mph 82 % 0 in
10:32 66 °F 60.1 °F 30.1 in SW 7 mph 12 mph 81 % 0 in
10:37 66.6 °F 60.3 °F 30.1 in SSW 2 mph 12 mph 80 % 0 in
10:42 67.3 °F 59.9 °F 30.1 in SW 9 mph 12 mph 77 % 0 in
10:47 67.3 °F 60.3 °F 30.1 in SSW 11 mph 12 mph 78 % 0 in
10:52 67.6 °F 60.3 °F 30.1 in South 3 mph 11 mph 77 % 0 in
11:02 68.4 °F 59.7 °F 30.1 in WSW 5 mph 11 mph 74 % 0 in
11:12 69.1 °F 59.7 °F 30.1 in SSW 6 mph 12 mph 72 % 0 in
11:17 69.4 °F 59.2 °F 30.1 in SW 12 mph 12 mph 70 % 0 in
11:22 69.4 °F 58.8 °F 30.1 in WSW 4 mph 12 mph 69 % 0 in
11:32 70 °F 58.1 °F 30.1 in SSW 5 mph 12 mph 66 % 0 in
11:42 70.5 °F 58.6 °F 30.1 in South 4 mph 10 mph 66 % 0 in
11:47 70.7 °F 58.3 °F 30.1 in SSW 6 mph 10 mph 65 % 0 in
11:52 70.9 °F 58.5 °F 30.1 in SSW 6 mph 11 mph 65 % 0 in
11:57 71.2 °F 58.5 °F 30.1 in SW 6 mph 11 mph 64 % 0 in
12:02 72.1 °F 59.4 °F 30.1 in SSW 5 mph 11 mph 64 % 0 in
12:12 72.1 °F 56.5 °F 30.1 in SSW 7 mph 9 mph 58 % 0 in
12:17 72.3 °F 57.2 °F 30.1 in SW 3 mph 9 mph 59 % 0 in
12:22 73 °F 57.4 °F 30.1 in SW 3 mph 10 mph 58 % 0 in
12:32 72.9 °F 56.7 °F 30.1 in SW 2 mph 10 mph 57 % 0 in
12:37 73 °F 57.4 °F 30 in SW 3 mph 10 mph 58 % 0 in
12:42 73 °F 56.5 °F 30.1 in WSW 7 mph 9 mph 56 % 0 in
12:47 73.2 °F 57 °F 30 in SW 3 mph 9 mph 57 % 0 in
12:52 73.2 °F 56.1 °F 30 in SSW 5 mph 9 mph 55 % 0 in
13:02 73.8 °F 57 °F 30 in SW 5 mph 12 mph 56 % 0 in
13:07 74.5 °F 57.7 °F 30 in SSW 4 mph 12 mph 56 % 0 in
13:17 74.8 °F 57 °F 30 in SW 5 mph 10 mph 54 % 0 in
13:22 75.2 °F 59 °F 30 in SSW 6 mph 13 mph 57 % 0 in
13:27 75.2 °F 57.9 °F 30 in SW 3 mph 13 mph 55 % 0 in
13:32 75.7 °F 59.4 °F 30 in SW 6 mph 13 mph 57 % 0 in
13:42 76.5 °F 57.6 °F 30 in SSW 9 mph 11 mph 52 % 0 in
13:52 77.2 °F 58.6 °F 30 in SSW 2 mph 13 mph 53 % 0 in
13:57 77.7 °F 58.6 °F 30 in SSW 6 mph 13 mph 52 % 0 in
14:02 77.9 °F 58.8 °F 30 in South 5 mph 9 mph 52 % 0 in
14:12 78.4 °F 58.8 °F 30 in South 7 mph 14 mph 51 % 0 in
14:17 78.3 °F 57.6 °F 30 in SW 7 mph 14 mph 49 % 0 in
14:27 78.8 °F 58.1 °F 30 in South 3 mph 13 mph 49 % 0 in
14:32 79.2 °F 59 °F 30 in SW 7 mph 13 mph 50 % 0 in
14:42 79.5 °F 58.6 °F 30 in SSW 6 mph 10 mph 49 % 0 in
14:47 79.5 °F 59.7 °F 30 in SW 3 mph 10 mph 51 % 0 in
14:57 81.7 °F 61.2 °F 30 in ESE 1 mph 9 mph 50 % 0 in
15:02 81.9 °F 60.8 °F 30 in SSE 4 mph 9 mph 49 % 0 in
15:12 82.4 °F 60.8 °F 30 in SW 7 mph 10 mph 48 % 0 in
15:17 82 °F 60.4 °F 30 in SSW 3 mph 10 mph 48 % 0 in
15:22 82.6 °F 61 °F 30 in SSW 4 mph 11 mph 48 % 0 in
15:27 83.1 °F 62.1 °F 30 in SE 4 mph 11 mph 49 % 0 in
15:37 83.1 °F 60.3 °F 30 in SSW 5 mph 9 mph 46 % 0 in
15:42 83.1 °F 61.3 °F 30 in SSW 7 mph 9 mph 48 % 0 in
15:47 82.8 °F 60.4 °F 30 in Calm   11 mph 47 % 0 in
15:52 83.8 °F 60.8 °F 30 in SW 3 mph 11 mph 46 % 0 in
15:57 83.7 °F 61.3 °F 30 in SSE 3 mph 11 mph 47 % 0 in
16:02 84 °F 61.7 °F 30 in SW 6 mph 10 mph 47 % 0 in
16:12 83.3 °F 61 °F 29.9 in SW 5 mph 10 mph 47 % 0 in
16:17 83.3 °F 61 °F 29.9 in SSW 3 mph 12 mph 47 % 0 in
16:22 83.7 °F 61.3 °F 29.9 in SSE 1 mph 12 mph 47 % 0 in
16:32 83.5 °F 61.7 °F 29.9 in WSW 6 mph 9 mph 48 % 0 in
16:37 83.7 °F 60.6 °F 29.9 in SSW 1 mph 12 mph 46 % 0 in
16:42 84 °F 62.2 °F 29.9 in SSW 5 mph 12 mph 48 % 0 in
16:47 83.7 °F 60.6 °F 29.9 in WSW 6 mph 11 mph 46 % 0 in
16:52 84 °F 61 °F 29.9 in WSW 5 mph 13 mph 46 % 0 in
17:02 84 °F 61 °F 29.9 in SW 4 mph 13 mph 46 % 0 in
17:12 84.9 °F 61.2 °F 29.9 in West 6 mph 13 mph 45 % 0 in
17:17 85.1 °F 60.8 °F 29.9 in SW 14 mph 14 mph 44 % 0 in
17:22 84.9 °F 60.6 °F 29.9 in SSW 6 mph 12 mph 44 % 0 in
17:32 85.6 °F 60.6 °F 29.9 in SSW 7 mph 15 mph 43 % 0 in
17:42 85.8 °F 62.1 °F 29.9 in SW 4 mph 14 mph 45 % 0 in
17:47 86.2 °F 63 °F 29.9 in SSW 6 mph 13 mph 46 % 0 in
17:52 86.2 °F 61 °F 29.9 in SW 11 mph 13 mph 43 % 0 in
17:57 86 °F 59.5 °F 29.9 in West 1 mph 15 mph 41 % 0 in
18:02 86.2 °F 60.4 °F 29.9 in SW 7 mph 15 mph 42 % 0 in
18:07 86.4 °F 59.9 °F 29.9 in WSW 7 mph 15 mph 41 % 0 in
18:12 86.4 °F 61.2 °F 29.9 in SSE 4 mph 15 mph 43 % 0 in
18:17 86.4 °F 59.9 °F 29.9 in WSW 7 mph 17 mph 41 % 0 in
18:22 86.2 °F 59.7 °F 29.9 in SSW 4 mph 17 mph 41 % 0 in
18:32 86.2 °F 60.4 °F 29.9 in SW 12 mph 19 mph 42 % 0 in
18:42 85.6 °F 59.2 °F 29.9 in WSW 7 mph 20 mph 41 % 0 in
18:47 85.6 °F 59.9 °F 29.9 in WSW 6 mph 20 mph 42 % 0 in
18:52 85.5 °F 58.5 °F 29.9 in SW 7 mph 20 mph 40 % 0 in
19:02 85.3 °F 59 °F 29.9 in SW 7 mph 18 mph 41 % 0 in
19:12 84.9 °F 57.9 °F 29.9 in WSW 4 mph 18 mph 40 % 0 in
19:17 84.7 °F 57.7 °F 29.9 in SW 9 mph 18 mph 40 % 0 in
19:22 84.7 °F 58.5 °F 29.9 in WSW 10 mph 16 mph 41 % 0 in
19:32 84.6 °F 57.6 °F 29.9 in SW 9 mph 16 mph 40 % 0 in
19:42 84.4 °F 58.1 °F 29.9 in WSW 8 mph 16 mph 41 % 0 in
19:52 84 °F 58.5 °F 29.9 in SW 5 mph 15 mph 42 % 0 in
19:57 83.8 °F 58.3 °F 29.9 in SSW 7 mph 15 mph 42 % 0 in
20:02 83.7 °F 58.1 °F 29.9 in WSW 8 mph 15 mph 42 % 0 in
20:12 83.3 °F 57.7 °F 29.9 in SW 7 mph 14 mph 42 % 0 in
20:22 82.8 °F 57.9 °F 29.9 in WSW 8 mph 14 mph 43 % 0 in
20:32 82 °F 57.9 °F 29.9 in West 3 mph 14 mph 44 % 0 in
20:42 81.7 °F 58.3 °F 29.9 in WSW 6 mph 14 mph 45 % 0 in
20:47 81.3 °F 58.6 °F 29.9 in SW 4 mph 11 mph 46 % 0 in
20:52 81 °F 58.8 °F 29.9 in SW 5 mph 11 mph 47 % 0 in
20:57 80.6 °F 58.5 °F 29.9 in West 2 mph 11 mph 47 % 0 in
21:02 80.2 °F 58.8 °F 29.9 in SW 5 mph 10 mph 48 % 0 in
21:12 79.5 °F 58.6 °F 29.9 in WSW 4 mph 9 mph 49 % 0 in
21:17 79.3 °F 58.5 °F 29.9 in SW 2 mph 8 mph 49 % 0 in
21:22 79 °F 58.8 °F 29.9 in WSW 6 mph 8 mph 50 % 0 in
21:32 78.1 °F 59 °F 29.9 in West 2 mph 7 mph 52 % 0 in
21:42 77 °F 59 °F 29.9 in Calm   7 mph 54 % 0 in
21:52 76.3 °F 59 °F 29.9 in West 1 mph 2 mph 55 % 0 in
21:57 75.9 °F 59.2 °F 29.9 in WSW 2 mph 2 mph 56 % 0 in
22:02 75.6 °F 59.2 °F 29.9 in WSW 2 mph 4 mph 57 % 0 in
22:12 75 °F 59.2 °F 29.9 in West 2 mph 4 mph 58 % 0 in
22:17 74.8 °F 59 °F 29.9 in West 2 mph 3 mph 58 % 0 in
22:22 74.8 °F 59 °F 29.9 in SW 1 mph 3 mph 58 % 0 in
22:27 74.7 °F 59.4 °F 29.9 in WSW 3 mph 4 mph 59 % 0 in
22:32 74.5 °F 59.2 °F 29.9 in WSW 2 mph 4 mph 59 % 0 in
22:42 74.1 °F 59.4 °F 29.9 in West 2 mph 4 mph 60 % 0 in
22:47 74.3 °F 59.5 °F 29.9 in WSW 2 mph 7 mph 60 % 0 in
22:52 74.3 °F 59 °F 29.9 in WSW 4 mph 7 mph 59 % 0 in
22:57 74.5 °F 59.2 °F 29.9 in West 3 mph 7 mph 59 % 0 in
23:02 74.5 °F 59.2 °F 29.9 in WSW 3 mph 6 mph 59 % 0 in
23:07 74.7 °F 59.4 °F 29.9 in WSW 3 mph 6 mph 59 % 0 in
23:12 74.5 °F 59.2 °F 29.9 in WSW 3 mph 6 mph 59 % 0 in
23:17 74.3 °F 59 °F 29.9 in WSW 2 mph 7 mph 59 % 0 in
23:22 74.1 °F 58.8 °F 29.9 in SW 4 mph 7 mph 59 % 0 in
23:32 73.8 °F 59 °F 29.9 in SW 3 mph 7 mph 60 % 0 in
23:37 73.6 °F 59.4 °F 29.9 in SW 3 mph 6 mph 61 % 0 in
23:42 73.2 °F 59 °F 29.9 in SW 4 mph 6 mph 61 % 0 in
23:47 72.9 °F 59.5 °F 29.9 in SW 4 mph 7 mph 63 % 0 in
23:52 72.5 °F 59.2 °F 29.9 in SW 1 mph 7 mph 63 % 0 in
23:57 72 °F 59.2 °F 29.9 in SSW 1 mph 7 mph 64 % 0 in
Meteo18
Compliments of Weather Underground - 4 mb

Script developed by  Jim McMurry - jmcmurry@mwt.net Adapted for the template by  Wim van der Kuil - Leuven-Template.eu

You find our weather info also at:

European Weather Network

Weather Underground

Equipment we use:

Weather-station
Davis Vue

Weather-program
Meteohub

Weather-server
Raspberry PI 2 B+

Provider
1 and 1

Davis Vue

Meteohub

Raspberry PI 2 B+

1 and 1